首页
METAR-TAF:

METAR-TAF

机场 :

敖德薩國際機場

敖德薩, 乌克兰

纬度: 46-26N, 经度: 030-46E, 海拔: 42米

当前天气观测

该预报发布于41分钟前的21:00 UTC
风速12节,风向
温度 12°C
湿度 76%
气压 1021 hPa
能见度10公里或以上
1500米以下无云,无积雨云

METAR: UKOO 212100Z 01006MPS CAVOK 12/08 Q1021 R34/090060 NOSIG

时间: 00:41 (21:41 UTC)

预报

该预报发布于4小时和35分钟前的17:06 UTC
预报有效从21日的 18点(UTC)到 22日的 18点(UTC)
风速10节,风向,有时为21节阵风
能見度: 2100
多云层高于700英尺
散云层高于2000英尺, 积雨云.
轻雾, 烟
几率 40% :
短暂存在
从 21日的 18点(UTC)到 22日的 06点(UTC)
能見度: 0300
层高于200英尺
成为
从 22日的 06点(UTC)到 22日的 07点(UTC)
能見度: 6000

TAF: UKOO 211706Z 2118/2218 36005G11MPS 2100 BR FU BKN007 SCT020CB PROB40 TEMPO 2118/2206 0300 FG VV002 BECMG 2206/2207 6000 NSW

超过4000个机场的气象观测和天气预报(METAR&TAF报告)。

可查询的气象台以黄色和红色小点在地图上表示。

将鼠标移到小点上方,可查看气象台名称。

然后点击查看天气观测和预报。

如需切换地图:点击带黑十字的绿色按钮放大地图;点击带横线的绿色按钮缩小地图;或者点击绿色箭头查看邻近地区的地图。


METAR-TAF: